Terminal Aerodrome Forecast
Issued by NWS Buffalo, NY

Home | Current Version | Previous Version | Text Only | Print | Product List | Glossary On
Versions: 1 2 3 4 5 6 7 8 9 10 11 12 13 14 15 16 17 18 19 20 21 22 23 24
811
FTUS41 KBUF 251740
TAFBUF
TAF
KBUF 251740Z 2518/2618 09009KT P6SM VCSH BKN025
     FM252300 09006KT P6SM BKN025
     FM260100 09004KT P6SM OVC035
     FM260700 00000KT 2SM BR VCSH OVC007
     FM261400 28005KT P6SM OVC012=

USA.gov is the U.S. government's official web portal to all federal, state and local government web resources and services.